Time;durP1;ratioP1;P1;durP2;ratioP2;P2;SDS_P1;SDS_P2;PMS_P1;PMS_P2;Temp;Humidity;BMP_temperature;BMP_pressure;BME280_temperature;BME280_humidity;BME280_pressure;Samples;Min_cycle;Max_cycle;Signal;HPM_P1;HPM_P2
2021/08/23 00:02:26;;;;;;;9.32;7.53;;;17.40;99.90;;;;;;5058810;28;20041;-74
2021/08/23 00:04:51;;;;;;;9.77;8.77;;;17.40;99.90;;;;;;5070655;28;20035;-74
2021/08/23 00:07:17;;;;;;;11.80;9.57;;;17.40;99.90;;;;;;5042746;28;20029;-74
2021/08/23 00:09:43;;;;;;;11.15;9.13;;;17.40;99.90;;;;;;5067706;28;20501;-74
2021/08/23 00:12:08;;;;;;;14.88;8.93;;;17.40;99.90;;;;;;5070827;28;20117;-73
2021/08/23 00:14:34;;;;;;;9.93;8.68;;;17.30;99.90;;;;;;5053600;28;20041;-74
2021/08/23 00:17:00;;;;;;;9.70;8.80;;;17.20;99.90;;;;;;5051991;27;20077;-73
2021/08/23 00:19:25;;;;;;;11.93;10.68;;;17.10;99.90;;;;;;5055384;28;20078;-74
2021/08/23 00:22:00;;;;;;;10.75;9.65;;;17.10;99.90;;;;;;5050716;28;20040;-74
2021/08/23 00:24:27;;;;;;;12.25;10.30;;;17.10;99.90;;;;;;5050481;28;20036;-73
2021/08/23 00:26:55;;;;;;;11.30;10.15;;;17.00;99.90;;;;;;5068182;28;20037;-74
2021/08/23 00:29:21;;;;;;;11.50;9.75;;;17.00;99.90;;;;;;5065618;28;20048;-74
2021/08/23 00:31:48;;;;;;;11.68;10.40;;;17.00;99.90;;;;;;5070479;28;20031;-74
2021/08/23 00:34:14;;;;;;;14.25;10.30;;;16.90;99.90;;;;;;5036973;28;20553;-74
2021/08/23 00:36:40;;;;;;;15.70;12.23;;;16.90;99.90;;;;;;5050422;28;20111;-73
2021/08/23 00:39:07;;;;;;;13.70;11.05;;;16.80;99.90;;;;;;5040176;28;20085;-73
2021/08/23 00:41:34;;;;;;;12.13;10.88;;;16.90;99.90;;;;;;5052401;28;20051;-74
2021/08/23 00:44:01;;;;;;;12.63;11.30;;;16.90;99.90;;;;;;5052003;27;20493;-74
2021/08/23 00:46:27;;;;;;;13.30;11.95;;;16.90;99.90;;;;;;5070185;28;20036;-73
2021/08/23 00:48:53;;;;;;;13.65;10.57;;;16.90;99.90;;;;;;5053450;28;20039;-73
2021/08/23 00:51:20;;;;;;;13.35;11.40;;;16.90;99.90;;;;;;5050139;28;20041;-73
2021/08/23 00:53:46;;;;;;;14.52;12.25;;;16.80;99.90;;;;;;5050110;28;20072;-74
2021/08/23 00:56:12;;;;;;;12.45;10.98;;;16.90;99.90;;;;;;5068003;28;20029;-74
2021/08/23 00:58:39;;;;;;;13.85;11.48;;;16.90;99.90;;;;;;5068624;28;20032;-75
2021/08/23 01:01:14;;;;;;;14.00;11.27;;;16.90;99.90;;;;;;5061395;28;20116;-74
2021/08/23 01:04:03;;;;;;;13.77;11.13;;;16.90;99.90;;;;;;5049878;28;20032;-74
2021/08/23 01:06:30;;;;;;;11.70;10.40;;;16.90;99.90;;;;;;5061204;28;20031;-74
2021/08/23 01:09:06;;;;;;;16.88;12.18;;;16.90;99.90;;;;;;5064578;28;20423;-74
2021/08/23 01:11:41;;;;;;;12.88;11.20;;;16.90;99.90;;;;;;5070167;28;20032;-74
2021/08/23 01:14:07;;;;;;;15.35;12.70;;;16.80;99.90;;;;;;5044585;28;20089;-74
2021/08/23 01:16:33;;;;;;;14.10;11.25;;;16.90;99.90;;;;;;5051896;28;20501;-74
2021/08/23 01:18:59;;;;;;;15.32;12.18;;;16.80;99.90;;;;;;5046275;27;20041;-75
2021/08/23 01:21:27;;;;;;;15.70;12.10;;;16.80;99.90;;;;;;5069662;28;20028;-74
2021/08/23 01:23:55;;;;;;;15.07;12.45;;;16.90;99.90;;;;;;5059866;28;20045;-74
2021/08/23 01:26:30;;;;;;;16.85;13.02;;;16.90;99.90;;;;;;5068356;28;20047;-74
2021/08/23 01:29:12;;;;;;;17.20;12.07;;;17.00;99.90;;;;;;5066106;28;20136;-74
2021/08/23 01:31:52;;;;;;;13.50;11.52;;;17.00;99.90;;;;;;5067262;28;20446;-74
2021/08/23 01:34:20;;;;;;;14.02;12.60;;;17.00;99.90;;;;;;5032676;28;20383;-74
2021/08/23 01:36:46;;;;;;;13.50;11.48;;;17.00;99.90;;;;;;5030692;28;20499;-74
2021/08/23 01:39:11;;;;;;;18.85;13.00;;;17.00;99.90;;;;;;5053013;28;20131;-75
2021/08/23 01:41:37;;;;;;;13.88;11.25;;;17.00;99.90;;;;;;5049523;28;20025;-74
2021/08/23 01:44:03;;;;;;;16.58;13.63;;;17.10;99.90;;;;;;5060096;28;20037;-75
2021/08/23 01:46:30;;;;;;;14.63;12.85;;;17.10;99.90;;;;;;5051497;28;20032;-75
2021/08/23 01:48:59;;;;;;;19.77;12.80;;;17.10;99.90;;;;;;5065137;28;20032;-75
2021/08/23 01:51:26;;;;;;;16.40;11.95;;;17.10;99.90;;;;;;5069313;28;20040;-75
2021/08/23 01:53:52;;;;;;;15.70;12.63;;;17.00;99.90;;;;;;5057153;28;20041;-74
2021/08/23 01:56:18;;;;;;;17.17;13.60;;;17.00;99.90;;;;;;5049282;28;20069;-74
2021/08/23 01:58:44;;;;;;;17.80;14.07;;;17.00;99.90;;;;;;5054329;28;20069;-74
2021/08/23 02:01:09;;;;;;;20.33;13.95;;;17.00;99.90;;;;;;5069244;28;20044;-74
2021/08/23 02:03:35;;;;;;;22.30;14.60;;;17.00;99.90;;;;;;5068471;28;20477;-74
2021/08/23 02:06:00;;;;;;;19.30;15.32;;;17.00;99.90;;;;;;5051318;28;20066;-75
2021/08/23 02:08:26;;;;;;;17.33;15.13;;;17.00;99.90;;;;;;5066826;28;20405;-74
2021/08/23 02:10:52;;;;;;;15.20;12.60;;;17.10;99.90;;;;;;5051311;28;20121;-74
2021/08/23 02:13:17;;;;;;;15.88;13.68;;;17.00;99.90;;;;;;5046175;28;20032;-74
2021/08/23 02:15:43;;;;;;;19.08;14.55;;;17.00;99.90;;;;;;5071632;28;20050;-74
2021/08/23 02:18:09;;;;;;;15.20;13.57;;;16.90;99.90;;;;;;5071724;27;20044;-74
2021/08/23 02:20:34;;;;;;;17.52;14.13;;;16.90;99.90;;;;;;5072551;28;20469;-74
2021/08/23 02:23:00;;;;;;;21.02;15.52;;;17.00;99.90;;;;;;5067395;28;20036;-74
2021/08/23 02:25:26;;;;;;;16.67;14.90;;;17.00;99.90;;;;;;5071780;28;20044;-74
2021/08/23 02:27:52;;;;;;;15.65;14.00;;;17.00;99.90;;;;;;5051049;28;20048;-75
2021/08/23 02:30:19;;;;;;;15.98;14.20;;;16.90;99.90;;;;;;5069798;28;20409;-74
2021/08/23 02:32:46;;;;;;;16.75;14.95;;;17.00;99.90;;;;;;5051455;28;20099;-74
2021/08/23 02:35:11;;;;;;;19.77;15.80;;;17.00;99.90;;;;;;5056187;28;20482;-74
2021/08/23 02:37:37;;;;;;;20.48;16.90;;;17.10;99.90;;;;;;5053547;28;20037;-74
2021/08/23 02:40:04;;;;;;;16.27;14.50;;;17.10;99.90;;;;;;5052147;28;20028;-74
2021/08/23 02:42:30;;;;;;;17.80;14.38;;;17.10;99.90;;;;;;5071466;28;20120;-74
2021/08/23 02:44:56;;;;;;;20.13;17.67;;;17.10;99.90;;;;;;5067850;28;20157;-74
2021/08/23 02:47:21;;;;;;;19.13;15.77;;;17.10;99.90;;;;;;5053502;28;20043;-74
2021/08/23 02:49:47;;;;;;;20.05;15.63;;;17.00;99.90;;;;;;5048094;28;20032;-74
2021/08/23 02:52:13;;;;;;;21.98;16.35;;;17.00;99.90;;;;;;5071412;28;20048;-75
2021/08/23 02:54:39;;;;;;;19.67;16.73;;;17.00;99.90;;;;;;5052289;28;20036;-74
2021/08/23 02:57:04;;;;;;;17.10;14.75;;;17.00;99.90;;;;;;5071957;28;20060;-74
2021/08/23 02:59:30;;;;;;;16.55;14.43;;;17.10;99.90;;;;;;5043089;28;20502;-74
2021/08/23 03:01:56;;;;;;;18.40;15.27;;;17.00;99.90;;;;;;5071968;28;20028;-74
2021/08/23 03:04:21;;;;;;;18.30;15.68;;;17.00;99.90;;;;;;5067502;28;20104;-74
2021/08/23 03:06:47;;;;;;;19.10;15.75;;;17.10;99.90;;;;;;5071839;28;20447;-74
2021/08/23 03:09:13;;;;;;;19.65;14.77;;;17.10;99.90;;;;;;5067989;28;20044;-74
2021/08/23 03:11:38;;;;;;;16.48;14.30;;;17.00;99.90;;;;;;5071719;28;20505;-74
2021/08/23 03:14:04;;;;;;;22.13;17.38;;;17.00;99.90;;;;;;5070384;28;20063;-74
2021/08/23 03:16:30;;;;;;;21.08;16.45;;;16.90;99.90;;;;;;5071643;28;20041;-74
2021/08/23 03:18:56;;;;;;;19.52;17.02;;;16.90;99.90;;;;;;5070931;27;20117;-74
2021/08/23 03:21:21;;;;;;;19.90;16.27;;;16.90;99.90;;;;;;5048661;28;20073;-74
2021/08/23 03:23:47;;;;;;;19.92;17.13;;;16.90;99.90;;;;;;5039932;28;20031;-74
2021/08/23 03:26:13;;;;;;;19.42;16.48;;;16.80;99.90;;;;;;5070446;28;20077;-74
2021/08/23 03:28:39;;;;;;;18.08;16.20;;;16.80;99.90;;;;;;5067789;28;20063;-74
2021/08/23 03:31:06;;;;;;;18.63;15.85;;;16.80;99.90;;;;;;5053526;28;20088;-74
2021/08/23 03:33:32;;;;;;;19.40;16.73;;;16.70;99.90;;;;;;5045547;28;20432;-74
2021/08/23 03:35:59;;;;;;;18.48;16.15;;;16.80;99.90;;;;;;5033510;28;20036;-74
2021/08/23 03:38:24;;;;;;;19.85;16.33;;;16.80;99.90;;;;;;5035764;28;20048;-74
2021/08/23 03:40:50;;;;;;;21.52;16.13;;;16.80;99.90;;;;;;5071360;28;20033;-74
2021/08/23 03:43:15;;;;;;;21.17;16.15;;;16.80;99.90;;;;;;5066203;28;20033;-74
2021/08/23 03:45:41;;;;;;;18.15;15.40;;;16.80;99.90;;;;;;5040450;28;20025;-72
2021/08/23 03:48:07;;;;;;;18.35;16.02;;;16.80;99.90;;;;;;5069974;28;20052;-74
2021/08/23 03:50:32;;;;;;;21.55;16.42;;;16.90;99.90;;;;;;5062430;28;20041;-74
2021/08/23 03:52:58;;;;;;;18.40;16.38;;;16.80;99.90;;;;;;5046275;28;20033;-74
2021/08/23 03:55:24;;;;;;;20.73;15.75;;;16.90;99.90;;;;;;5070935;28;20093;-74
2021/08/23 03:57:50;;;;;;;17.73;14.45;;;16.90;99.90;;;;;;5070988;28;20044;-74
2021/08/23 04:00:16;;;;;;;16.83;14.95;;;16.90;99.90;;;;;;5068550;28;20029;-74
2021/08/23 04:02:42;;;;;;;18.00;16.08;;;16.90;99.90;;;;;;5051049;28;20078;-74
2021/08/23 04:05:08;;;;;;;16.65;14.43;;;16.90;99.90;;;;;;5050977;28;20097;-75
2021/08/23 04:07:34;;;;;;;22.80;17.60;;;17.00;99.90;;;;;;5043672;28;20450;-74
2021/08/23 04:09:59;;;;;;;21.80;15.75;;;17.00;99.90;;;;;;5048684;28;20041;-74
2021/08/23 04:12:25;;;;;;;19.33;15.75;;;16.90;99.90;;;;;;5052582;28;20028;-75
2021/08/23 04:14:50;;;;;;;16.95;15.00;;;16.90;99.90;;;;;;5050770;28;20116;-74
2021/08/23 04:17:16;;;;;;;17.52;15.68;;;16.80;99.90;;;;;;5032599;28;20048;-74
2021/08/23 04:19:42;;;;;;;19.50;16.48;;;16.70;99.90;;;;;;5066224;28;20109;-74
2021/08/23 04:22:11;;;;;;;19.73;15.25;;;16.70;99.90;;;;;;5070692;28;20429;-74
2021/08/23 04:24:37;;;;;;;15.77;12.98;;;16.70;99.90;;;;;;5053523;28;20060;-74
2021/08/23 04:27:03;;;;;;;17.77;12.73;;;16.60;99.90;;;;;;5070234;28;20032;-75
2021/08/23 04:29:29;;;;;;;19.05;11.32;;;16.70;99.90;;;;;;5049009;28;20516;-74
2021/08/23 04:31:54;;;;;;;16.25;12.15;;;16.80;99.90;;;;;;5069244;28;20037;-74
2021/08/23 04:34:20;;;;;;;20.83;15.18;;;16.80;99.90;;;;;;5057964;28;20117;-74
2021/08/23 04:36:46;;;;;;;18.45;15.60;;;16.80;99.90;;;;;;5050142;28;20036;-74
2021/08/23 04:39:11;;;;;;;21.02;15.85;;;16.90;99.90;;;;;;5041930;28;20562;-74
2021/08/23 04:41:38;;;;;;;22.52;15.93;;;16.90;99.90;;;;;;5069425;28;20470;-74
2021/08/23 04:44:05;;;;;;;20.00;16.33;;;17.00;99.90;;;;;;5057409;28;20025;-74
2021/08/23 04:46:31;;;;;;;19.40;15.25;;;17.00;99.90;;;;;;5060018;28;20538;-74
2021/08/23 04:48:57;;;;;;;16.98;14.00;;;17.00;99.90;;;;;;5068885;28;20043;-74
2021/08/23 04:51:23;;;;;;;19.30;14.35;;;17.00;99.90;;;;;;5069452;28;20036;-74
2021/08/23 04:53:48;;;;;;;16.95;13.10;;;17.00;99.90;;;;;;5064049;28;20081;-74
2021/08/23 04:56:15;;;;;;;14.88;12.80;;;17.00;99.90;;;;;;5068138;28;20393;-74
2021/08/23 04:58:41;;;;;;;17.30;14.02;;;17.00;99.90;;;;;;5046140;28;20037;-76
2021/08/23 05:01:07;;;;;;;17.98;15.07;;;17.00;99.90;;;;;;5067376;28;20504;-77
2021/08/23 05:03:32;;;;;;;16.90;13.60;;;17.00;99.90;;;;;;5065403;28;20040;-75
2021/08/23 05:05:58;;;;;;;16.48;13.93;;;17.00;99.90;;;;;;5064304;28;20072;-75
2021/08/23 05:08:24;;;;;;;17.25;14.70;;;17.00;99.90;;;;;;5047005;28;20029;-75
2021/08/23 05:10:49;;;;;;;17.90;14.40;;;17.00;99.90;;;;;;5066589;28;20052;-75
2021/08/23 05:13:15;;;;;;;18.48;15.07;;;17.00;99.90;;;;;;5042225;28;20027;-75
2021/08/23 05:15:41;;;;;;;19.52;15.75;;;17.00;99.90;;;;;;5065190;28;20517;-75
2021/08/23 05:18:07;;;;;;;18.27;14.07;;;17.00;99.90;;;;;;5045559;28;20076;-75
2021/08/23 05:20:32;;;;;;;17.20;15.35;;;17.10;99.90;;;;;;5048642;28;20040;-75
2021/08/23 05:22:58;;;;;;;19.45;15.13;;;17.10;99.90;;;;;;5065601;28;20082;-76
2021/08/23 05:25:24;;;;;;;20.35;16.98;;;17.10;99.90;;;;;;5049674;28;20044;-75
2021/08/23 05:27:50;;;;;;;23.67;17.33;;;17.10;99.90;;;;;;5065979;28;20033;-75
2021/08/23 05:30:15;;;;;;;23.17;16.73;;;17.20;99.90;;;;;;5045867;28;20029;-75
2021/08/23 05:32:41;;;;;;;19.75;16.67;;;17.20;99.90;;;;;;5045408;28;20053;-75
2021/08/23 05:35:07;;;;;;;20.77;17.55;;;17.30;99.90;;;;;;5064815;28;20120;-75
2021/08/23 05:37:33;;;;;;;19.05;16.13;;;17.30;99.90;;;;;;5064854;28;20515;-75
2021/08/23 05:39:58;;;;;;;20.05;16.17;;;17.30;99.90;;;;;;5045341;28;20488;-75
2021/08/23 05:42:24;;;;;;;21.20;16.67;;;17.30;99.90;;;;;;5047878;28;20031;-74
2021/08/23 05:44:54;;;;;;;18.05;16.00;;;17.30;99.90;;;;;;5064658;28;20085;-75
2021/08/23 05:47:20;;;;;;;23.90;18.85;;;17.30;99.90;;;;;;5065247;28;20483;-76
2021/08/23 05:49:46;;;;;;;24.75;19.00;;;17.30;99.90;;;;;;5048492;28;20040;-75
2021/08/23 05:52:12;;;;;;;26.60;20.42;;;17.40;99.90;;;;;;5069064;28;20032;-76
2021/08/23 05:54:39;;;;;;;26.60;19.98;;;17.30;99.90;;;;;;5067936;28;20028;-76
2021/08/23 05:57:05;;;;;;;26.27;20.25;;;17.30;99.90;;;;;;5050778;28;20047;-76
2021/08/23 05:59:31;;;;;;;29.17;21.05;;;17.30;99.90;;;;;;5067365;28;20602;-75
2021/08/23 06:01:57;;;;;;;28.23;21.60;;;17.30;99.90;;;;;;5067217;28;20107;-76
2021/08/23 06:04:23;;;;;;;29.30;22.92;;;17.30;99.90;;;;;;5067884;28;20501;-75
2021/08/23 06:06:50;;;;;;;30.25;22.23;;;17.20;99.90;;;;;;5067894;28;20516;-75
2021/08/23 06:09:19;;;;;;;32.65;24.45;;;17.20;99.90;;;;;;5049980;28;20033;-75
2021/08/23 06:11:46;;;;;;;35.08;25.15;;;17.20;99.90;;;;;;5052439;28;20041;-75
2021/08/23 06:14:12;;;;;;;37.75;26.33;;;17.30;99.90;;;;;;5047164;28;20374;-75
2021/08/23 06:16:38;;;;;;;36.67;25.25;;;17.30;99.90;;;;;;5068747;27;20036;-75
2021/08/23 06:19:05;;;;;;;35.28;26.20;;;17.30;99.90;;;;;;5064664;28;20056;-76
2021/08/23 06:21:31;;;;;;;45.20;30.02;;;17.30;99.90;;;;;;5066188;28;20036;-76
2021/08/23 06:23:57;;;;;;;45.30;30.90;;;17.20;99.90;;;;;;5045064;28;20037;-77
2021/08/23 06:26:22;;;;;;;38.15;26.65;;;17.20;99.90;;;;;;5068356;28;20100;-76
2021/08/23 06:28:49;;;;;;;39.45;28.77;;;17.20;99.90;;;;;;5068516;28;20029;-76
2021/08/23 06:31:14;;;;;;;41.53;29.00;;;17.20;99.90;;;;;;5070262;28;20423;-76
2021/08/23 06:33:40;;;;;;;39.30;29.73;;;17.20;99.90;;;;;;5049071;28;20035;-77
2021/08/23 06:36:06;;;;;;;41.63;29.95;;;17.20;99.90;;;;;;5069198;28;20037;-76
2021/08/23 06:38:31;;;;;;;40.17;27.67;;;17.20;99.90;;;;;;5051460;28;20044;-76
2021/08/23 06:40:57;;;;;;;42.90;29.38;;;17.20;99.90;;;;;;5070349;28;20033;-77
2021/08/23 06:43:23;;;;;;;43.50;29.60;;;17.10;99.90;;;;;;5068584;28;20029;-76
2021/08/23 06:45:49;;;;;;;47.28;32.25;;;17.10;99.90;;;;;;5068185;28;20107;-76
2021/08/23 06:48:14;;;;;;;46.85;33.97;;;17.10;99.90;;;;;;5051282;28;20025;-77
2021/08/23 06:50:40;;;;;;;41.28;29.50;;;17.10;99.90;;;;;;5085170;27;20403;-76
2021/08/23 06:53:06;;;;;;;38.60;29.05;;;17.10;99.90;;;;;;5052978;27;20032;-76
2021/08/23 06:55:33;;;;;;;41.53;30.17;;;17.10;99.90;;;;;;5069690;28;20032;-76
2021/08/23 06:57:59;;;;;;;39.35;29.48;;;17.10;99.90;;;;;;5064727;27;20747;-76
2021/08/23 07:00:25;;;;;;;39.33;29.10;;;17.20;99.90;;;;;;5049425;28;20399;-75
2021/08/23 07:02:51;;;;;;;40.72;28.10;;;17.10;99.90;;;;;;5050419;28;20039;-76
2021/08/23 07:05:17;;;;;;;39.40;26.70;;;17.10;99.90;;;;;;5051736;28;20017;-76
2021/08/23 07:07:43;;;;;;;38.78;27.38;;;17.10;99.90;;;;;;5067692;28;20052;-76
2021/08/23 07:10:11;;;;;;;38.38;27.90;;;17.10;99.90;;;;;;5051860;28;20493;-77
2021/08/23 07:12:38;;;;;;;38.28;27.52;;;17.10;99.90;;;;;;5063797;27;20028;-76
2021/08/23 07:15:04;;;;;;;34.85;25.73;;;17.20;99.90;;;;;;5069353;27;20043;-76
2021/08/23 07:17:29;;;;;;;36.00;28.08;;;17.20;99.90;;;;;;5051483;28;20116;-77
2021/08/23 07:19:55;;;;;;;34.35;25.38;;;17.20;99.90;;;;;;5066649;28;20485;-76
2021/08/23 07:22:22;;;;;;;46.72;27.25;;;17.20;99.90;;;;;;5070270;27;20032;-77
2021/08/23 07:24:48;;;;;;;35.78;27.75;;;17.30;99.90;;;;;;5072750;27;20033;-76
2021/08/23 07:27:14;;;;;;;32.42;26.95;;;17.20;99.90;;;;;;5078819;27;20047;-77
2021/08/23 07:29:40;;;;;;;35.45;26.92;;;17.30;99.90;;;;;;5051098;28;20081;-75
2021/08/23 07:32:06;;;;;;;33.72;26.52;;;17.20;99.90;;;;;;5070770;28;20069;-76
2021/08/23 07:34:32;;;;;;;31.88;25.08;;;17.20;99.90;;;;;;5050327;28;20044;-76
2021/08/23 07:36:57;;;;;;;35.05;25.65;;;17.20;99.90;;;;;;5053278;28;20039;-76
2021/08/23 07:39:23;;;;;;;35.60;24.88;;;17.20;99.90;;;;;;5085858;27;20052;-78
2021/08/23 07:41:50;;;;;;;36.88;26.48;;;17.20;99.90;;;;;;5069106;28;20089;-77
2021/08/23 07:44:15;;;;;;;34.83;26.65;;;17.20;99.90;;;;;;5065850;27;20449;-77
2021/08/23 07:46:41;;;;;;;36.08;27.52;;;17.20;99.90;;;;;;5069265;28;20132;-77
2021/08/23 07:49:07;;;;;;;41.80;30.30;;;17.20;99.90;;;;;;5050996;28;20120;-77
2021/08/23 07:51:33;;;;;;;38.05;28.38;;;17.20;99.90;;;;;;5067594;28;20076;-77
2021/08/23 07:53:58;;;;;;;41.33;29.42;;;17.20;99.90;;;;;;5067550;28;20068;-77
2021/08/23 07:56:29;;;;;;;36.65;28.15;;;17.20;99.90;;;;;;5041726;28;20037;-77
2021/08/23 07:58:57;;;;;;;40.55;28.25;;;17.20;99.90;;;;;;5115952;27;20074;-77
2021/08/23 08:01:25;;;;;;;45.50;31.55;;;17.20;99.90;;;;;;5113190;27;20040;-78
2021/08/23 08:03:51;;;;;;;46.05;32.13;;;17.20;99.90;;;;;;5116161;27;20574;-78
2021/08/23 08:06:18;;;;;;;40.08;29.92;;;17.20;99.90;;;;;;5112560;27;20031;-78
2021/08/23 08:08:43;;;;;;;37.25;28.38;;;17.30;99.90;;;;;;5109209;27;20062;-77
2021/08/23 08:11:09;;;;;;;43.33;31.05;;;17.30;99.90;;;;;;5132453;27;20066;-77
2021/08/23 08:13:35;;;;;;;43.90;29.80;;;17.30;99.90;;;;;;5127576;27;20035;-78
2021/08/23 08:16:01;;;;;;;45.47;31.25;;;17.40;99.90;;;;;;5119711;27;20114;-78
2021/08/23 08:18:27;;;;;;;45.95;31.45;;;17.40;99.90;;;;;;5111523;28;20120;-77
2021/08/23 08:20:52;;;;;;;50.70;33.30;;;17.30;99.90;;;;;;5098947;27;20540;-78
2021/08/23 08:23:18;;;;;;;49.20;33.33;;;17.40;99.90;;;;;;5131049;27;20035;-77
2021/08/23 08:25:44;;;;;;;48.38;33.35;;;17.30;99.90;;;;;;5132463;27;20577;-78
2021/08/23 08:28:11;;;;;;;49.13;33.63;;;17.40;99.90;;;;;;5130756;27;20122;-78
2021/08/23 08:30:37;;;;;;;45.17;29.90;;;17.40;99.90;;;;;;5095076;28;20036;-78
2021/08/23 08:33:03;;;;;;;43.90;31.92;;;17.40;99.90;;;;;;5121141;27;20045;-78
2021/08/23 08:35:29;;;;;;;37.95;26.77;;;17.40;99.90;;;;;;5102984;28;20041;-77
2021/08/23 08:37:54;;;;;;;39.97;28.98;;;17.40;99.90;;;;;;5043845;28;20086;-78
2021/08/23 08:40:20;;;;;;;31.45;24.45;;;17.40;99.90;;;;;;5070337;28;20470;-77
2021/08/23 08:42:47;;;;;;;35.00;24.85;;;17.50;99.90;;;;;;5070428;28;20115;-78
2021/08/23 08:45:13;;;;;;;27.65;21.05;;;17.40;99.90;;;;;;5063342;28;20116;-77
2021/08/23 08:47:41;;;;;;;26.08;20.05;;;17.40;99.90;;;;;;5069670;28;20450;-78
2021/08/23 08:50:09;;;;;;;24.42;19.17;;;17.50;99.90;;;;;;5048510;28;20037;-77
2021/08/23 08:52:37;;;;;;;27.45;20.25;;;17.50;99.90;;;;;;5067242;28;20044;-77
2021/08/23 08:55:02;;;;;;;30.38;22.58;;;17.50;99.90;;;;;;5070048;28;20470;-77
2021/08/23 08:57:28;;;;;;;36.15;23.98;;;17.50;99.90;;;;;;5058300;28;20025;-78
2021/08/23 08:59:55;;;;;;;32.88;23.63;;;17.60;99.90;;;;;;5053651;27;20053;-78
2021/08/23 09:02:20;;;;;;;35.65;24.48;;;17.60;99.90;;;;;;5053181;28;20062;-78
2021/08/23 09:04:46;;;;;;;31.73;23.75;;;17.60;99.90;;;;;;5057593;28;20047;-77
2021/08/23 09:07:13;;;;;;;24.80;18.73;;;17.60;99.90;;;;;;5035379;28;20490;-78
2021/08/23 09:09:40;;;;;;;29.42;22.00;;;17.60;99.90;;;;;;5060697;28;20489;-77
2021/08/23 09:12:07;;;;;;;23.48;18.63;;;17.60;99.90;;;;;;5069785;28;20080;-77
2021/08/23 09:14:36;;;;;;;17.80;15.90;;;17.60;99.90;;;;;;5051911;28;20032;-78
2021/08/23 09:17:09;;;;;;;19.85;14.70;;;17.60;99.90;;;;;;5051420;27;20043;-78
2021/08/23 09:19:37;;;;;;;18.80;15.07;;;17.60;99.90;;;;;;5068417;28;20131;-77
2021/08/23 09:22:07;;;;;;;15.07;12.70;;;17.70;99.90;;;;;;5068008;28;20032;-77
2021/08/23 09:24:34;;;;;;;17.38;13.23;;;17.70;99.90;;;;;;5049323;28;20041;-77
2021/08/23 09:27:11;;;;;;;16.33;13.43;;;17.80;99.90;;;;;;5049672;28;20166;-77
2021/08/23 09:30:01;;;;;;;15.73;13.43;;;17.80;99.90;;;;;;5060486;28;20036;-78
2021/08/23 09:32:32;;;;;;;15.02;12.68;;;17.90;99.90;;;;;;5050069;28;20489;-77
2021/08/23 09:34:59;;;;;;;13.25;11.85;;;17.90;99.90;;;;;;5065222;28;20456;-77
2021/08/23 09:37:30;;;;;;;13.00;11.48;;;17.90;99.90;;;;;;5048612;28;20033;-77
2021/08/23 09:40:06;;;;;;;12.38;11.07;;;18.00;99.90;;;;;;5066387;28;20032;-77
2021/08/23 09:42:32;;;;;;;12.45;10.40;;;18.00;99.90;;;;;;5047070;28;20077;-77
2021/08/23 09:44:57;;;;;;;13.55;11.07;;;18.10;99.90;;;;;;5065896;28;20060;-77
2021/08/23 09:47:28;;;;;;;14.07;11.15;;;18.00;99.90;;;;;;5047405;28;20028;-77
2021/08/23 09:49:54;;;;;;;10.77;9.55;;;18.10;99.90;;;;;;5065785;28;20036;-77
2021/08/23 09:52:31;;;;;;;11.77;9.88;;;18.10;99.90;;;;;;5065898;28;20131;-77
2021/08/23 09:55:05;;;;;;;12.73;10.93;;;18.20;99.90;;;;;;5063745;28;20029;-77
2021/08/23 09:57:34;;;;;;;10.57;9.48;;;18.20;99.90;;;;;;5049661;28;20029;-77
2021/08/23 10:00:00;;;;;;;9.25;8.30;;;18.20;99.90;;;;;;5065985;28;20532;-77
2021/08/23 10:02:27;;;;;;;9.23;8.00;;;18.40;99.90;;;;;;5061185;28;20060;-78
2021/08/23 10:04:55;;;;;;;10.13;8.75;;;18.40;99.90;;;;;;5048633;28;20749;-77
2021/08/23 10:07:22;;;;;;;9.98;8.98;;;18.50;99.90;;;;;;5045859;28;20066;-77
2021/08/23 10:09:48;;;;;;;8.93;7.85;;;18.60;99.90;;;;;;5046005;28;20025;-77
2021/08/23 10:12:14;;;;;;;10.13;8.27;;;18.60;99.90;;;;;;5065158;28;20370;-77
2021/08/23 10:14:42;;;;;;;8.98;8.07;;;18.70;99.90;;;;;;5060608;28;20037;-77
2021/08/23 10:17:09;;;;;;;9.38;8.38;;;18.60;99.90;;;;;;5045659;27;20037;-76
2021/08/23 10:19:34;;;;;;;8.60;7.43;;;18.60;99.90;;;;;;5063026;28;20080;-77
2021/08/23 10:22:00;;;;;;;10.07;8.07;;;18.60;99.90;;;;;;5049026;28;20071;-76
2021/08/23 10:24:29;;;;;;;10.30;8.48;;;18.70;99.90;;;;;;5066766;28;20442;-77
2021/08/23 10:26:56;;;;;;;9.35;7.25;;;18.80;99.90;;;;;;5067468;28;20033;-76
2021/08/23 10:29:22;;;;;;;8.52;7.70;;;18.80;99.90;;;;;;5049341;28;20565;-77
2021/08/23 10:31:48;;;;;;;9.10;8.13;;;18.80;99.90;;;;;;5046851;28;20043;-76
2021/08/23 10:34:17;;;;;;;11.43;7.82;;;18.90;99.90;;;;;;5066728;28;20115;-76
2021/08/23 10:36:44;;;;;;;8.50;7.60;;;19.00;99.90;;;;;;5069802;28;20033;-77
2021/08/23 10:39:16;;;;;;;8.75;7.90;;;19.00;99.90;;;;;;5052992;28;20044;-76
2021/08/23 10:41:42;;;;;;;9.25;8.32;;;19.10;99.90;;;;;;5051904;28;20438;-77
2021/08/23 10:44:08;;;;;;;8.98;8.00;;;19.10;99.90;;;;;;5052029;28;20112;-77
2021/08/23 10:46:36;;;;;;;9.07;8.20;;;19.10;99.90;;;;;;5051510;28;20033;-76
2021/08/23 10:49:14;;;;;;;8.77;7.88;;;19.20;99.90;;;;;;5038059;28;20102;-76
2021/08/23 10:51:42;;;;;;;9.52;7.50;;;19.20;99.90;;;;;;5034037;28;20033;-74
2021/08/23 10:54:33;;;;;;;10.77;8.90;;;19.30;99.90;;;;;;5051520;28;20036;-74
2021/08/23 10:56:59;;;;;;;9.35;8.27;;;19.40;99.90;;;;;;5053491;28;20025;-74
2021/08/23 10:59:25;;;;;;;9.85;8.25;;;19.40;99.90;;;;;;5071633;28;20043;-75
2021/08/23 11:01:59;;;;;;;8.50;7.65;;;19.50;99.90;;;;;;5053585;28;20028;-74
2021/08/23 11:04:31;;;;;;;10.02;7.72;;;19.70;99.90;;;;;;5069844;28;20036;-75
2021/08/23 11:06:56;;;;;;;9.43;8.35;;;19.70;99.90;;;;;;5050270;28;20483;-75
2021/08/23 11:09:31;;;;;;;11.60;9.30;;;19.70;99.90;;;;;;5053403;28;20113;-74
2021/08/23 11:12:12;;;;;;;8.20;7.40;;;19.80;99.90;;;;;;5051182;28;20512;-75
2021/08/23 11:14:47;;;;;;;8.63;7.70;;;19.70;99.90;;;;;;5054646;28;20149;-75
2021/08/23 11:17:24;;;;;;;11.02;9.90;;;19.50;99.90;;;;;;5055952;27;20051;-74
2021/08/23 11:19:50;;;;;;;13.85;10.07;;;19.50;99.90;;;;;;5045817;28;20150;-74
2021/08/23 11:22:17;;;;;;;14.30;9.88;;;19.50;99.90;;;;;;5051629;28;20024;-75
2021/08/23 11:24:43;;;;;;;13.32;9.88;;;19.40;99.90;;;;;;5070285;28;20115;-74
2021/08/23 11:27:08;;;;;;;14.63;10.63;;;19.30;99.90;;;;;;5062815;28;20072;-74
2021/08/23 11:29:38;;;;;;;15.73;12.38;;;19.20;99.90;;;;;;5071140;28;20035;-75
2021/08/23 11:32:07;;;;;;;14.93;11.65;;;19.20;99.90;;;;;;5053964;28;20103;-74
2021/08/23 11:34:33;;;;;;;16.80;12.05;;;19.10;99.90;;;;;;5071085;28;20156;-75
2021/08/23 11:37:07;;;;;;;13.90;12.43;;;19.10;99.90;;;;;;5054367;28;20072;-75
2021/08/23 11:39:34;;;;;;;13.73;12.27;;;19.20;99.90;;;;;;5053401;28;20559;-75
2021/08/23 11:42:03;;;;;;;13.65;10.75;;;19.20;99.90;;;;;;5060857;28;20029;-74
2021/08/23 11:44:29;;;;;;;11.68;9.20;;;19.10;99.90;;;;;;5033268;28;20033;-75
2021/08/23 11:46:55;;;;;;;11.20;9.15;;;19.10;99.90;;;;;;5050313;28;20478;-75
2021/08/23 11:49:35;;;;;;;9.35;8.35;;;19.00;99.90;;;;;;5050775;28;20033;-75
2021/08/23 11:52:17;;;;;;;9.85;8.35;;;19.10;99.90;;;;;;5049900;28;20382;-75
2021/08/23 11:54:52;;;;;;;10.45;7.25;;;19.10;99.90;;;;;;5068087;28;20033;-75
2021/08/23 11:57:18;;;;;;;8.43;7.60;;;19.20;99.90;;;;;;5036647;28;20028;-75
2021/08/23 12:00:01;;;;;;;9.57;8.65;;;19.30;99.90;;;;;;5052688;28;20489;-75
2021/08/23 12:02:28;;;;;;;;;;;19.40;99.90;;;;;;5071483;28;20423;-75
2021/08/23 12:05:14;;;;;;;10.13;8.68;;;19.50;99.90;;;;;;5036990;28;19905;-75
2021/08/23 12:07:49;;;;;;;9.07;8.18;;;19.60;99.90;;;;;;5050869;28;20055;-75
2021/08/23 12:10:49;;;;;;;8.20;7.18;;;19.70;99.90;;;;;;5051972;28;20032;-75
2021/08/23 12:13:17;;;;;;;9.20;6.78;;;19.70;99.90;;;;;;5043334;28;20037;-74
2021/08/23 12:15:55;;;;;;;7.07;6.40;;;19.70;99.90;;;;;;5066009;28;20090;-75
2021/08/23 12:18:39;;;;;;;7.32;6.40;;;19.80;99.90;;;;;;5032997;28;20125;-74
2021/08/23 12:21:08;;;;;;;8.68;6.60;;;20.00;99.90;;;;;;5032941;28;20500;-74
2021/08/23 12:23:52;;;;;;;6.53;5.82;;;20.00;99.90;;;;;;5032788;28;20033;-74
2021/08/23 12:26:41;;;;;;;12.35;7.60;;;20.00;99.90;;;;;;5050661;28;20144;-74
2021/08/23 12:29:17;;;;;;;9.63;7.72;;;20.00;99.90;;;;;;5050215;27;20454;-74
2021/08/23 12:32:11;;;;;;;9.05;8.00;;;20.20;99.90;;;;;;5070667;28;20043;-74
2021/08/23 12:34:41;;;;;;;8.80;7.40;;;20.10;99.90;;;;;;5053242;28;20028;-74